Howardville, New York
Current Conditions -  °F | °C
As of 6:01 PM on Friday 28 Nov 2014 (Local Time) from KFZY Reporting Station
Light Snow Light Snow  
Wind Chill: 16°   Ceiling: 2600
Heat Index: 25°   Visibility: 7mi
Dew Point: 16°   Wind: 8mph
Humidity: 69%   Direction: 250°WSW
Pressure: 30.21"   Gusts: NA
Location:  43.4945°N, 75.9612°W
Report Text: KFZY 282301Z AUTO 25007KT 7SM -SN BKN026 OVC036 M04/M09 A3021 RMK AO2 P0000 T10391089
Loading
Personal Weather Stations






























Interactive Weather Map New forecast layout! Learn more

10-Day Weather Forecast

Advertisements
Track Severe Weather on mobile